Tuesday, May 31, 2016, 5:57 AM EDT

KDYL, Doylestown Airport

Location: Doylestown, PA, United States Lat: 40.333
Local Time: 5:57 AM EDT ( 9:57 GMT) Lon: -75.117
Time Zone: US/Eastern Elev: 393 ft

Show me the last for .
Show Decoded

2016-05-31 04:54 METAR KDYL 310854Z AUTO 00000KT 10SM OVC047 21/19 A2994 RMK AO2 SLP134 T02060194
                 50000 =
2016-05-31 03:54 METAR KDYL 310754Z AUTO 00000KT 10SM SCT013 BKN049 20/19 A2994 RMK AO2 SLP134
                 T02000194 =
2016-05-31 02:54 METAR KDYL 310654Z AUTO 24004KT 10SM FEW015 OVC110 21/19 A2995 RMK AO2 SLP137
                 T02060194 =
2016-05-31 01:54 METAR KDYL 310554Z AUTO 24003KT 10SM FEW110 21/19 A2994 RMK AO2 SLP134 T02110194
                 10228 20211 56008 =
2016-05-31 01:41 METAR KDYL 310541Z AUTO 22004KT 10SM FEW028 SCT100 21/20 A2994 RMK AO2 T02110200
                 =
2016-05-31 00:54 METAR KDYL 310454Z AUTO 21005KT 10SM SCT009 OVC023 21/20 A2995 RMK AO2 SLP137
                 T02110200 402670183 =
2016-05-31 00:45 METAR KDYL 310445Z AUTO 19004KT 10SM SCT009 BKN023 21/20 A2995 RMK AO2 T02110200
                 =
2016-05-31 00:34 METAR KDYL 310434Z AUTO 20005KT 10SM BKN009 BKN021 21/20 A2995 RMK AO2 T02110200
                 =
2016-05-31 00:19 METAR KDYL 310419Z AUTO VRB04KT 10SM FEW009 21/20 A2995 RMK AO2 T02110200 =
2016-05-30 23:54 METAR KDYL 310354Z AUTO 17004KT 10SM FEW010 SCT020 21/20 A2995 RMK AO2 SLP138
                 T02110200 =
2016-05-30 22:54 METAR KDYL 310254Z AUTO VRB04KT 10SM SCT010 OVC017 21/20 A2997 RMK AO2 SLP142
                 T02110200 53000 =
2016-05-30 22:11 METAR KDYL 310211Z AUTO 22006KT 10SM BKN011 22/20 A2997 RMK AO2 T02170200 =
2016-05-30 21:54 METAR KDYL 310154Z AUTO 19005KT 10SM FEW011 21/20 A2997 RMK AO2 SLP144 T02110200
                 =
2016-05-30 20:54 METAR KDYL 310054Z AUTO 18006KT 10SM CLR 22/19 A2996 RMK AO2 SLP141 T02170194 =
2016-05-30 19:54 METAR KDYL 302354Z AUTO 20005KT 10SM CLR 23/19 A2996 RMK AO2 SLP142 T02280189
                 10267 20228 53010 =
2016-05-30 18:54 METAR KDYL 302254Z AUTO 20005KT 10SM CLR 23/18 A2994 RMK AO2 SLP135 T02330183 =
2016-05-30 17:54 METAR KDYL 302154Z AUTO 18006KT 10SM CLR 24/19 A2994 RMK AO2 SLP133 T02390189 =
2016-05-30 16:54 METAR KDYL 302054Z AUTO VRB06KT 10SM CLR 25/18 A2993 RMK AO2 SLP131 T02500183
                 56011 =
2016-05-30 15:54 METAR KDYL 301954Z AUTO 23005KT 10SM FEW039 27/16 A2994 RMK AO2 SLP132 T02670161
                 =
2016-05-30 14:54 METAR KDYL 301854Z AUTO VRB05KT 10SM FEW035 26/17 A2996 RMK AO2 SLP139 T02610172
                 =
2016-05-30 13:54 METAR KDYL 301754Z AUTO 22003KT 10SM FEW033 25/17 A2997 RMK AO2 SLP142 T02500167
                 10261 20206 56013 =
2016-05-30 12:54 METAR KDYL 301654Z AUTO 28003KT 10SM FEW029 25/18 A2998 RMK AO2 SLP147 T02500178
                 =
2016-05-30 12:38 METAR KDYL 301638Z AUTO 29007KT 10SM FEW025 BKN030 BKN035 25/17 A2998 RMK AO2
                 T02500172 =
2016-05-30 11:54 METAR KDYL 301554Z AUTO VRB04KT 10SM BKN023 25/19 A2998 RMK AO2 SLP148 T02500189
                 =
2016-05-30 10:54 METAR KDYL 301454Z AUTO 27004KT 10SM SCT019 23/19 A3000 RMK AO2 SLP156 T02330189
                 58002 =
2016-05-30 10:42 METAR KDYL 301442Z AUTO 33003KT 10SM SCT017 BKN065 23/18 A3001 RMK AO2 T02330183
                 =
2016-05-30 10:17 METAR KDYL 301417Z AUTO 22004KT 10SM BKN017 OVC085 22/19 A3002 RMK AO2 T02220189
                 =
2016-05-30 09:54 METAR KDYL 301354Z AUTO 23004KT 10SM BKN013 23/19 A3002 RMK AO2 SLP161 T02280194
                 =
2016-05-30 09:44 METAR KDYL 301344Z AUTO 00000KT 10SM BKN013 22/19 A3002 RMK AO2 T02170194 =
2016-05-30 09:04 METAR KDYL 301304Z AUTO 27003KT 10SM BKN009 OVC012 21/20 A3003 RMK AO2 CIG
                 006V011 T02110200 =
2016-05-30 08:54 METAR KDYL 301254Z AUTO 28004KT 10SM SCT007 BKN012 BKN026 21/20 A3003 RMK AO2
                 SLP164 T02060200 =
2016-05-30 08:44 METAR KDYL 301244Z AUTO 24003KT 10SM SCT007 BKN013 OVC090 21/20 A3003 RMK AO2
                 T02110200 =
2016-05-30 08:32 METAR KDYL 301232Z AUTO 26004KT 10SM SCT006 BKN030 OVC085 21/19 A3002 RMK AO2
                 T02060194 =
2016-05-30 07:54 METAR KDYL 301154Z AUTO 26003KT 10SM OVC006 20/19 A3001 RMK AO2 RAE15 SLP158
                 P0001 60006 70047 T02000194 10200 20183 51007 =
2016-05-30 07:13 METAR KDYL 301113Z AUTO 00000KT 8SM -RA SCT004 BKN008 OVC025 19/19 A3001 RMK AO2
                 P0001 T01940194 =
2016-05-30 06:54 METAR KDYL 301054Z AUTO 00000KT 3SM -RA BR BKN004 OVC009 19/19 A3001 RMK AO2
                 RAB11 SLP157 P0002 T01890189 =
2016-05-30 06:36 METAR KDYL 301036Z AUTO 00000KT 3SM -RA BR BKN004 OVC008 19/19 A3001 RMK AO2
                 RAB11 CIG 002V007 P0000 T01890189 =
2016-05-30 06:18 METAR KDYL 301018Z AUTO 00000KT 7SM -RA BKN008 OVC015 19/19 A3001 RMK AO2 RAB11
                 P0000 T01890189 =

Support USWX by starting your Amazon purchase here.